Time;durP1;ratioP1;P1;durP2;ratioP2;P2;SDS_P1;SDS_P2;PMS_P1;PMS_P2;Temp;Humidity;BMP_temperature;BMP_pressure;BME280_temperature;BME280_humidity;BME280_pressure;Samples;Min_cycle;Max_cycle;Signal;HPM_P1;HPM_P2
2022/08/02 00:00:01;;;;;;;2.10;2.00;;;23.90;38.10;;;;;;10429339;28;20600;-75
2022/08/02 00:05:07;;;;;;;2.20;2.00;;;23.90;38.10;;;;;;10445817;28;20299;-76
2022/08/02 00:10:12;;;;;;;2.80;1.90;;;23.80;38.60;;;;;;10432960;28;20235;-76
2022/08/02 00:15:15;;;;;;;2.13;2.03;;;23.80;38.40;;;;;;10433522;28;20229;-76
2022/08/02 00:20:20;;;;;;;2.03;1.83;;;23.60;38.20;;;;;;10453960;28;20229;-76
2022/08/02 00:25:23;;;;;;;2.27;2.07;;;23.50;38.90;;;;;;10436345;28;20226;-76
2022/08/02 00:30:26;;;;;;;2.33;2.13;;;23.40;38.60;;;;;;10438099;28;21123;-76
2022/08/02 00:35:31;;;;;;;2.77;2.10;;;23.30;39.00;;;;;;10424845;28;20225;-76
2022/08/02 00:40:34;;;;;;;2.10;2.00;;;23.20;39.30;;;;;;10436598;28;20222;-76
2022/08/02 00:45:39;;;;;;;2.20;2.00;;;23.10;39.20;;;;;;10439593;28;20229;-76
2022/08/02 00:51:03;;;;;;;4.40;2.33;;;23.10;39.20;;;;;;10445065;28;20712;-76
2022/08/02 00:56:07;;;;;;;2.60;2.40;;;23.00;39.90;;;;;;10442973;28;20233;-76
2022/08/02 01:01:10;;;;;;;2.43;2.23;;;22.90;39.40;;;;;;10440956;28;20221;-77
2022/08/02 01:06:16;;;;;;;5.23;2.40;;;22.70;39.70;;;;;;10451797;28;20236;-76
2022/08/02 01:11:19;;;;;;;3.37;2.50;;;22.60;40.80;;;;;;10436018;28;20736;-76
2022/08/02 01:16:30;;;;;;;2.33;2.13;;;22.50;40.40;;;;;;10450458;28;20235;-75
2022/08/02 01:21:47;;;;;;;2.60;2.00;;;22.40;41.80;;;;;;10446468;28;20921;-75
2022/08/02 01:26:57;;;;;;;2.33;1.83;;;22.40;41.90;;;;;;10448918;28;20239;-76
2022/08/02 01:32:08;;;;;;;2.00;1.90;;;22.50;41.50;;;;;;10418801;28;20228;-76
2022/08/02 01:37:19;;;;;;;2.77;1.87;;;22.50;41.80;;;;;;10443873;28;20231;-76
2022/08/02 01:42:23;;;;;;;1.97;1.87;;;22.50;41.70;;;;;;10441842;28;20232;-76
2022/08/02 01:47:31;;;;;;;2.47;1.90;;;22.60;40.70;;;;;;10429401;28;20227;-76
2022/08/02 01:52:37;;;;;;;1.97;1.87;;;22.60;41.40;;;;;;10445918;28;20234;-75
2022/08/02 01:57:44;;;;;;;1.73;1.63;;;22.50;40.90;;;;;;10438158;28;20224;-75
2022/08/02 02:02:51;;;;;;;1.90;1.80;;;22.50;41.10;;;;;;10445142;28;20225;-75
2022/08/02 02:07:58;;;;;;;2.20;2.07;;;22.50;41.30;;;;;;10419998;28;20304;-76
2022/08/02 02:13:06;;;;;;;3.60;2.00;;;22.50;41.60;;;;;;10417749;28;20221;-76
2022/08/02 02:18:17;;;;;;;2.27;2.00;;;22.50;41.30;;;;;;10409002;28;20224;-76
2022/08/02 02:23:20;;;;;;;1.63;1.53;;;22.50;41.70;;;;;;10431260;28;20237;-76
2022/08/02 02:28:31;;;;;;;2.00;1.90;;;22.50;40.50;;;;;;10428500;28;20567;-76
2022/08/02 02:33:40;;;;;;;1.80;1.70;;;22.50;41.30;;;;;;10428468;28;20236;-75
2022/08/02 02:38:45;;;;;;;2.10;1.90;;;22.60;41.40;;;;;;10446252;28;20243;-76
2022/08/02 02:43:49;;;;;;;1.97;1.73;;;22.60;40.90;;;;;;10441618;28;20225;-76
2022/08/02 02:48:54;;;;;;;3.90;1.60;;;22.60;41.40;;;;;;10454043;28;20254;-75
2022/08/02 02:53:58;;;;;;;1.80;1.70;;;22.60;41.00;;;;;;10423732;28;20602;-75
2022/08/02 02:59:21;;;;;;;1.87;1.77;;;22.60;40.60;;;;;;10431846;28;20241;-76
2022/08/02 03:04:28;;;;;;;2.00;1.73;;;22.60;40.70;;;;;;10443156;28;20705;-76
2022/08/02 03:09:51;;;;;;;1.90;1.80;;;22.60;41.10;;;;;;10443612;28;20216;-76
2022/08/02 03:14:58;;;;;;;2.13;1.60;;;22.50;40.40;;;;;;10435053;28;20236;-75
2022/08/02 03:20:04;;;;;;;1.73;1.63;;;22.50;41.10;;;;;;10446800;28;20224;-75
2022/08/02 03:25:08;;;;;;;1.80;1.70;;;22.50;41.10;;;;;;10432089;28;20224;-75
2022/08/02 03:30:13;;;;;;;2.90;1.97;;;22.50;40.80;;;;;;10446286;28;20763;-76
2022/08/02 03:35:19;;;;;;;2.30;1.80;;;22.50;41.00;;;;;;10440158;28;20229;-75
2022/08/02 03:40:28;;;;;;;1.80;1.70;;;22.50;41.00;;;;;;10442325;28;20229;-75
2022/08/02 03:45:32;;;;;;;1.60;1.50;;;22.40;41.00;;;;;;10446733;28;20228;-76
2022/08/02 03:50:38;;;;;;;1.80;1.70;;;22.40;40.40;;;;;;10446580;28;20223;-76
2022/08/02 03:55:41;;;;;;;1.87;1.73;;;22.40;41.00;;;;;;10431493;28;20725;-76
2022/08/02 04:00:44;;;;;;;1.60;1.50;;;22.40;40.60;;;;;;10447189;28;20222;-75
2022/08/02 04:05:49;;;;;;;3.97;2.10;;;22.30;40.50;;;;;;10442957;28;20279;-76
2022/08/02 04:16:34;;;;;;;3.53;1.60;;;22.30;40.80;;;;;;10438717;28;20240;-76
2022/08/02 04:21:41;;;;;;;2.07;1.60;;;22.20;41.20;;;;;;10439917;28;20223;-75
2022/08/02 04:26:56;;;;;;;3.13;2.10;;;22.10;41.50;;;;;;10448202;28;20270;-75
2022/08/02 04:32:09;;;;;;;2.93;1.90;;;22.10;41.30;;;;;;10430807;28;20226;-76
2022/08/02 04:37:14;;;;;;;3.00;1.83;;;22.00;41.10;;;;;;10444664;28;20224;-76
2022/08/02 04:42:21;;;;;;;3.63;1.83;;;22.00;41.70;;;;;;10441039;28;20213;-76
2022/08/02 04:47:25;;;;;;;2.33;1.80;;;22.00;41.80;;;;;;10437036;28;20225;-75
2022/08/02 04:52:49;;;;;;;4.53;1.80;;;21.90;41.10;;;;;;10433360;28;20228;-75
2022/08/02 04:57:56;;;;;;;3.90;1.70;;;21.90;41.80;;;;;;10432180;28;20235;-75
2022/08/02 05:03:00;;;;;;;1.90;1.80;;;21.90;41.40;;;;;;10434036;28;20243;-76
2022/08/02 05:08:05;;;;;;;2.10;1.80;;;22.00;41.70;;;;;;10443735;28;20728;-76
2022/08/02 05:13:09;;;;;;;2.00;1.80;;;22.00;42.20;;;;;;10446206;28;20237;-76
2022/08/02 05:18:12;;;;;;;2.00;1.63;;;22.00;41.50;;;;;;10436905;28;20225;-76
2022/08/02 05:23:17;;;;;;;2.10;1.90;;;22.00;41.70;;;;;;10434083;28;20236;-75
2022/08/02 05:28:20;;;;;;;1.80;1.70;;;22.00;42.20;;;;;;10446570;28;20715;-76
2022/08/02 05:33:23;;;;;;;2.00;1.90;;;22.00;41.90;;;;;;10439159;28;20225;-76
2022/08/02 05:38:29;;;;;;;2.10;1.90;;;22.10;42.20;;;;;;10431423;28;20884;-76
2022/08/02 05:43:33;;;;;;;1.60;1.50;;;22.10;42.70;;;;;;10441503;28;20256;-75
2022/08/02 05:48:37;;;;;;;2.17;2.07;;;22.20;42.40;;;;;;10446573;28;20224;-75
2022/08/02 05:53:51;;;;;;;2.77;1.90;;;22.20;42.40;;;;;;10439233;28;20731;-75
2022/08/02 05:58:59;;;;;;;1.97;1.83;;;22.30;43.10;;;;;;10450469;28;20227;-75
2022/08/02 06:04:07;;;;;;;2.03;1.93;;;22.40;42.90;;;;;;10445671;28;20221;-76
2022/08/02 06:09:16;;;;;;;1.93;1.80;;;22.40;42.50;;;;;;10440923;28;20231;-76
2022/08/02 06:14:32;;;;;;;2.20;1.90;;;22.50;42.80;;;;;;10437043;28;20225;-77
2022/08/02 06:19:37;;;;;;;1.90;1.80;;;22.50;42.80;;;;;;10445522;28;20661;-76
2022/08/02 06:24:56;;;;;;;2.10;2.00;;;22.60;42.70;;;;;;10436848;28;20248;-77
2022/08/02 06:30:01;;;;;;;2.60;2.00;;;22.70;43.00;;;;;;10432663;28;20221;-76
2022/08/02 06:35:06;;;;;;;2.00;1.80;;;22.80;42.90;;;;;;10432225;28;20221;-74
2022/08/02 06:40:18;;;;;;;2.23;2.03;;;22.90;42.70;;;;;;10426260;28;20825;-75
2022/08/02 06:45:22;;;;;;;2.13;1.93;;;23.10;43.30;;;;;;10430180;28;20247;-74
2022/08/02 06:50:25;;;;;;;2.13;1.93;;;23.20;42.60;;;;;;10433917;28;20415;-75
2022/08/02 06:55:31;;;;;;;2.47;2.27;;;23.40;42.60;;;;;;10421939;28;20240;-74
2022/08/02 07:00:46;;;;;;;2.40;2.10;;;23.50;42.50;;;;;;10426066;28;20224;-75
2022/08/02 07:05:49;;;;;;;2.87;2.10;;;23.60;42.00;;;;;;10430732;28;20580;-74
2022/08/02 07:10:55;;;;;;;1.80;1.70;;;23.70;42.00;;;;;;10426592;28;20736;-74
2022/08/02 07:15:58;;;;;;;2.27;2.17;;;23.80;42.10;;;;;;10424378;28;20240;-74
2022/08/02 07:21:04;;;;;;;2.10;1.90;;;23.90;42.40;;;;;;10424813;28;20229;-75
2022/08/02 07:26:12;;;;;;;2.37;2.17;;;24.10;42.60;;;;;;10437003;28;20586;-74
2022/08/02 07:31:15;;;;;;;2.50;2.30;;;24.30;42.20;;;;;;10442739;28;20239;-76
2022/08/02 07:36:18;;;;;;;2.23;2.03;;;24.50;41.60;;;;;;10442785;28;20225;-76
2022/08/02 07:41:26;;;;;;;2.60;2.10;;;24.60;41.40;;;;;;10441002;28;20698;-77
2022/08/02 07:46:32;;;;;;;2.23;2.13;;;24.70;41.20;;;;;;10439981;28;20231;-79
2022/08/02 07:51:35;;;;;;;2.67;2.47;;;24.90;40.90;;;;;;10439080;28;20225;-76
2022/08/02 07:56:40;;;;;;;2.47;2.03;;;25.00;40.90;;;;;;10430181;28;20236;-77
2022/08/02 08:01:43;;;;;;;1.93;1.83;;;25.20;41.00;;;;;;10435542;28;20221;-76
2022/08/02 08:06:50;;;;;;;2.50;2.30;;;25.40;41.20;;;;;;10432819;28;20225;-75
2022/08/02 08:11:55;;;;;;;2.13;2.03;;;25.60;41.20;;;;;;10429470;28;20271;-76
2022/08/02 08:16:58;;;;;;;2.60;2.40;;;25.70;40.20;;;;;;10439350;28;20711;-77
2022/08/02 08:22:02;;;;;;;2.80;2.60;;;25.90;40.00;;;;;;10440313;28;20311;-77
2022/08/02 08:27:09;;;;;;;2.57;2.37;;;26.00;39.90;;;;;;10443136;28;20219;-77
2022/08/02 08:32:13;;;;;;;2.40;2.20;;;26.20;39.50;;;;;;10441780;28;20228;-77
2022/08/02 08:37:20;;;;;;;2.17;2.07;;;26.40;39.40;;;;;;10438175;28;20290;-77
2022/08/02 08:42:25;;;;;;;2.60;2.40;;;26.60;39.60;;;;;;10437213;28;20221;-77
2022/08/02 08:47:34;;;;;;;2.23;2.03;;;26.80;38.70;;;;;;10438821;28;20836;-77
2022/08/02 08:52:42;;;;;;;2.20;2.00;;;27.00;38.40;;;;;;10441387;28;20895;-77
2022/08/02 08:57:47;;;;;;;2.17;2.03;;;27.20;37.30;;;;;;10437699;28;20274;-77
2022/08/02 09:02:50;;;;;;;3.43;1.83;;;27.30;37.60;;;;;;10437614;28;20225;-77
2022/08/02 09:07:54;;;;;;;2.10;1.90;;;27.40;37.60;;;;;;10435655;28;20324;-77
2022/08/02 09:13:11;;;;;;;2.00;1.90;;;27.60;36.70;;;;;;10437476;28;20221;-78
2022/08/02 09:18:37;;;;;;;1.90;1.80;;;27.80;35.20;;;;;;10429915;28;20348;-76
2022/08/02 09:23:42;;;;;;;2.13;1.93;;;27.90;35.30;;;;;;10431588;28;20225;-78
2022/08/02 09:28:48;;;;;;;2.00;1.80;;;28.10;35.50;;;;;;10427379;28;20227;-77
2022/08/02 09:33:54;;;;;;;2.20;2.00;;;28.30;35.20;;;;;;10421910;28;20306;-76
2022/08/02 09:39:00;;;;;;;2.00;1.90;;;28.50;35.10;;;;;;10427932;28;20707;-78
2022/08/02 09:44:06;;;;;;;2.00;1.90;;;28.70;35.10;;;;;;10425736;28;20743;-76
2022/08/02 09:49:11;;;;;;;2.03;1.67;;;29.00;34.40;;;;;;10431475;28;20807;-78
2022/08/02 09:54:18;;;;;;;1.80;1.70;;;29.30;33.60;;;;;;10430661;28;20597;-78
2022/08/02 09:59:24;;;;;;;1.60;1.50;;;29.40;31.50;;;;;;10428126;28;20224;-76
2022/08/02 10:04:29;;;;;;;1.43;1.33;;;29.50;31.70;;;;;;10420687;28;20236;-77
2022/08/02 10:09:34;;;;;;;1.77;1.67;;;29.60;32.10;;;;;;10425308;28;20602;-77
2022/08/02 10:14:49;;;;;;;1.73;1.63;;;29.80;31.40;;;;;;10421020;28;20225;-77
2022/08/02 10:19:52;;;;;;;1.70;1.60;;;29.90;31.50;;;;;;10424775;28;20221;-77
2022/08/02 10:25:07;;;;;;;1.90;1.60;;;30.00;31.00;;;;;;10427510;28;20229;-77
2022/08/02 10:30:13;;;;;;;2.83;1.60;;;30.00;30.50;;;;;;10432831;28;20231;-76
2022/08/02 10:35:20;;;;;;;1.50;1.50;;;30.10;30.10;;;;;;10431198;28;20230;-76
2022/08/02 10:40:46;;;;;;;1.70;1.60;;;30.20;30.10;;;;;;10430300;28;20235;-77
2022/08/02 10:45:51;;;;;;;1.50;1.40;;;30.30;30.30;;;;;;10430368;28;20228;-77
2022/08/02 10:50:55;;;;;;;1.70;1.60;;;30.40;30.00;;;;;;10437806;28;20229;-77
2022/08/02 10:55:59;;;;;;;1.53;1.53;;;30.40;30.00;;;;;;10420612;28;23689;-76
2022/08/02 11:01:06;;;;;;;1.90;1.70;;;30.50;29.50;;;;;;10424517;28;21054;-76
2022/08/02 11:06:11;;;;;;;1.73;1.63;;;30.70;29.00;;;;;;10420138;28;20225;-76
2022/08/02 11:11:28;;;;;;;1.57;1.47;;;30.80;29.00;;;;;;10429981;28;20307;-76
2022/08/02 11:17:13;;;;;;;1.70;1.60;;;30.90;29.00;;;;;;10430563;28;20969;-77
2022/08/02 11:22:18;;;;;;;1.80;1.70;;;30.90;28.80;;;;;;10432450;28;20221;-77
2022/08/02 11:27:28;;;;;;;1.47;1.43;;;30.90;29.10;;;;;;10437316;28;20228;-77
2022/08/02 11:32:34;;;;;;;1.77;1.50;;;30.90;28.90;;;;;;10438140;28;20233;-77
2022/08/02 11:37:40;;;;;;;2.20;1.57;;;31.00;28.20;;;;;;10426062;28;20868;-74
2022/08/02 11:42:44;;;;;;;1.63;1.53;;;31.00;28.40;;;;;;10430833;28;20537;-77
2022/08/02 11:47:51;;;;;;;1.60;1.50;;;31.10;28.60;;;;;;10425153;28;20221;-76
2022/08/02 11:52:56;;;;;;;1.70;1.60;;;31.20;27.60;;;;;;10428468;28;20240;-76
2022/08/02 11:58:00;;;;;;;1.60;1.50;;;31.30;28.50;;;;;;10425374;28;20231;-77
2022/08/02 12:03:09;;;;;;;1.70;1.60;;;31.40;27.40;;;;;;10428532;28;20712;-79
2022/08/02 12:08:12;;;;;;;1.60;1.50;;;31.50;26.90;;;;;;10435509;28;20861;-78
2022/08/02 12:13:15;;;;;;;2.03;1.37;;;31.60;27.50;;;;;;10435828;28;20351;-79
2022/08/02 12:23:43;;;;;;;1.50;1.40;;;31.70;26.30;;;;;;10433715;28;20228;-78
2022/08/02 12:29:03;;;;;;;1.70;1.60;;;31.70;26.40;;;;;;10433380;28;20224;-78
2022/08/02 12:34:16;;;;;;;1.40;1.40;;;31.70;26.50;;;;;;10438244;28;20221;-78
2022/08/02 12:39:19;;;;;;;1.60;1.50;;;31.70;25.40;;;;;;10432795;28;20236;-78
2022/08/02 12:44:22;;;;;;;1.70;1.60;;;31.70;25.70;;;;;;10444204;28;20722;-78
2022/08/02 12:49:27;;;;;;;1.57;1.23;;;31.70;25.80;;;;;;10447724;28;20239;-78
2022/08/02 12:54:39;;;;;;;1.17;1.17;;;31.60;24.80;;;;;;10444774;28;20221;-78
2022/08/02 12:59:49;;;;;;;1.33;1.30;;;31.70;25.00;;;;;;10445228;28;20227;-78
2022/08/02 13:04:53;;;;;;;1.50;1.40;;;31.70;25.40;;;;;;10444862;28;20221;-78
2022/08/02 13:09:56;;;;;;;1.60;1.30;;;31.80;24.90;;;;;;10445687;28;20229;-78
2022/08/02 13:15:06;;;;;;;1.50;1.40;;;31.90;25.40;;;;;;10443188;28;20229;-78
2022/08/02 13:20:31;;;;;;;1.40;1.40;;;31.90;25.10;;;;;;10441430;28;20236;-78
2022/08/02 13:25:34;;;;;;;1.40;1.40;;;32.00;24.60;;;;;;10442972;28;20230;-78
2022/08/02 13:30:38;;;;;;;1.20;1.20;;;32.10;24.80;;;;;;10441660;28;20471;-78
2022/08/02 13:35:44;;;;;;;1.30;1.30;;;32.10;24.50;;;;;;10437714;28;20221;-78
2022/08/02 13:46:08;;;;;;;1.30;1.20;;;32.00;24.10;;;;;;10440725;28;20231;-76
2022/08/02 13:51:13;;;;;;;1.23;1.20;;;32.00;24.40;;;;;;10439466;28;20231;-76
2022/08/02 13:56:17;;;;;;;1.50;1.40;;;31.90;23.50;;;;;;10438725;28;20229;-75
2022/08/02 14:01:20;;;;;;;1.10;1.10;;;32.00;23.80;;;;;;10436548;28;20224;-76
2022/08/02 14:06:24;;;;;;;1.50;1.40;;;31.90;23.50;;;;;;10432766;28;20321;-76
2022/08/02 14:11:29;;;;;;;1.37;1.37;;;31.90;23.40;;;;;;10436575;28;20230;-76
2022/08/02 14:16:33;;;;;;;2.00;1.50;;;32.00;23.40;;;;;;10435188;28;20235;-76
2022/08/02 14:21:37;;;;;;;3.67;1.80;;;31.90;23.50;;;;;;10437903;28;20220;-76
2022/08/02 14:26:50;;;;;;;1.30;1.30;;;31.90;23.00;;;;;;10435563;28;20225;-76
2022/08/02 14:31:53;;;;;;;2.63;1.40;;;32.00;22.50;;;;;;10439672;28;20217;-76
2022/08/02 14:36:58;;;;;;;1.33;1.30;;;31.90;22.20;;;;;;10432967;28;20228;-76
2022/08/02 14:42:01;;;;;;;1.20;1.20;;;31.70;22.00;;;;;;10429985;28;20712;-76
2022/08/02 14:47:05;;;;;;;1.40;1.37;;;31.70;22.80;;;;;;10441155;28;20213;-76
2022/08/02 14:52:11;;;;;;;1.40;1.30;;;31.80;22.60;;;;;;10439011;28;20216;-76
2022/08/02 14:57:16;;;;;;;1.37;1.27;;;31.90;22.10;;;;;;10444651;28;20574;-76
2022/08/02 15:02:19;;;;;;;1.20;1.20;;;32.00;22.50;;;;;;10448562;28;20848;-76
2022/08/02 15:07:24;;;;;;;1.40;1.30;;;32.10;22.30;;;;;;10444953;28;20240;-76
2022/08/02 15:12:27;;;;;;;1.37;1.30;;;32.20;22.20;;;;;;10447332;28;20224;-76
2022/08/02 15:17:30;;;;;;;1.23;1.20;;;32.30;22.30;;;;;;10440868;28;20230;-76
2022/08/02 15:22:35;;;;;;;1.40;1.23;;;32.50;22.40;;;;;;10441790;28;20237;-76
2022/08/02 15:27:38;;;;;;;1.30;1.20;;;32.50;21.30;;;;;;10440734;28;20239;-77
2022/08/02 15:32:42;;;;;;;1.07;1.07;;;32.70;21.00;;;;;;10410221;28;20237;-77
2022/08/02 15:37:57;;;;;;;1.10;1.10;;;32.80;20.80;;;;;;10438291;28;20255;-79
2022/08/02 15:43:00;;;;;;;1.20;1.20;;;32.80;20.10;;;;;;10449312;28;20256;-77
2022/08/02 15:48:04;;;;;;;1.20;1.20;;;32.90;20.80;;;;;;10438913;28;20231;-78
2022/08/02 15:53:09;;;;;;;1.10;1.10;;;33.10;20.20;;;;;;10441637;28;20240;-78
2022/08/02 15:58:12;;;;;;;1.80;1.20;;;33.10;19.80;;;;;;10440515;28;20306;-78
2022/08/02 16:03:19;;;;;;;1.23;1.23;;;33.10;20.60;;;;;;10442890;28;20231;-78
2022/08/02 16:08:24;;;;;;;1.07;1.07;;;33.10;19.80;;;;;;10445937;28;20837;-78
2022/08/02 16:18:56;;;;;;;1.20;1.20;;;33.20;19.60;;;;;;10447939;28;20248;-78
2022/08/02 16:24:01;;;;;;;1.23;1.23;;;33.20;19.60;;;;;;10442817;28;20232;-78
2022/08/02 16:29:05;;;;;;;1.13;1.13;;;33.20;18.70;;;;;;10444444;28;20229;-78
2022/08/02 16:34:08;;;;;;;1.20;1.20;;;33.20;18.90;;;;;;10443675;28;20847;-77
2022/08/02 16:39:13;;;;;;;1.20;1.20;;;33.20;18.80;;;;;;10445997;28;20235;-78
2022/08/02 16:44:16;;;;;;;1.33;1.23;;;33.10;18.20;;;;;;10443872;28;20236;-78
2022/08/02 16:49:29;;;;;;;1.13;1.13;;;33.10;18.70;;;;;;10447830;28;20224;-78
2022/08/02 16:54:54;;;;;;;1.30;1.30;;;33.20;18.80;;;;;;10444957;28;20224;-78
2022/08/02 16:59:57;;;;;;;1.27;1.17;;;33.20;18.20;;;;;;10451311;28;20226;-78
2022/08/02 17:05:00;;;;;;;1.20;1.20;;;33.10;18.20;;;;;;10448888;28;20221;-78
2022/08/02 17:10:07;;;;;;;1.00;1.00;;;33.10;18.30;;;;;;10445828;28;20225;-79
2022/08/02 17:15:12;;;;;;;1.10;1.10;;;33.10;17.50;;;;;;10442310;28;20221;-78
2022/08/02 17:20:35;;;;;;;1.30;1.20;;;33.10;17.80;;;;;;10447090;28;20229;-78
2022/08/02 17:25:40;;;;;;;1.03;1.03;;;33.00;17.60;;;;;;10443803;28;20225;-80
2022/08/02 17:30:44;;;;;;;1.10;1.00;;;33.00;17.50;;;;;;10441257;28;20283;-78
2022/08/02 17:35:48;;;;;;;1.03;1.00;;;32.90;17.50;;;;;;10444314;28;20221;-78
2022/08/02 17:40:57;;;;;;;0.90;0.90;;;32.90;17.70;;;;;;10445330;28;20213;-78
2022/08/02 17:46:00;;;;;;;1.10;1.10;;;32.90;17.40;;;;;;10442793;28;20233;-78
2022/08/02 17:51:05;;;;;;;1.00;1.00;;;32.90;17.80;;;;;;10445534;28;20224;-78
2022/08/02 17:56:14;;;;;;;1.20;1.10;;;32.90;17.40;;;;;;10447883;28;20221;-78
2022/08/02 18:01:17;;;;;;;1.70;1.00;;;32.80;17.20;;;;;;10443985;28;20810;-78
2022/08/02 18:06:26;;;;;;;2.30;0.90;;;32.80;17.40;;;;;;10446138;28;20788;-78
2022/08/02 18:11:30;;;;;;;1.10;1.10;;;32.70;17.30;;;;;;10445348;28;20311;-78
2022/08/02 18:16:54;;;;;;;1.03;1.00;;;32.70;17.80;;;;;;10444364;28;20228;-78
2022/08/02 18:21:57;;;;;;;1.30;1.30;;;32.60;17.90;;;;;;10444243;28;20599;-78
2022/08/02 18:27:02;;;;;;;1.20;1.20;;;32.50;18.10;;;;;;10447060;28;20266;-78
2022/08/02 18:32:06;;;;;;;1.43;1.33;;;32.50;18.30;;;;;;10444588;28;20567;-78
2022/08/02 18:37:13;;;;;;;1.27;1.27;;;32.40;18.60;;;;;;10444086;28;20229;-77
2022/08/02 18:42:21;;;;;;;1.33;1.23;;;32.30;18.80;;;;;;10441763;28;20233;-77
2022/08/02 18:47:26;;;;;;;1.20;1.10;;;32.10;19.00;;;;;;10433825;28;20693;-78
2022/08/02 18:52:36;;;;;;;1.70;1.37;;;32.00;19.30;;;;;;10434672;28;20606;-77
2022/08/02 18:57:43;;;;;;;1.10;1.10;;;31.80;19.40;;;;;;10417246;28;20316;-76
2022/08/02 19:03:07;;;;;;;108.83;100.17;;;31.60;19.70;;;;;;10417088;28;20236;-76
2022/08/02 19:08:11;;;;;;;22.30;20.60;;;31.50;19.80;;;;;;10430805;28;20351;-77
2022/08/02 19:13:17;;;;;;;8.20;7.50;;;31.30;19.70;;;;;;10428690;28;20236;-78
2022/08/02 19:18:20;;;;;;;3.87;3.57;;;31.00;20.00;;;;;;10426826;28;20236;-78
2022/08/02 19:23:32;;;;;;;2.20;2.10;;;30.70;20.30;;;;;;10427987;28;20247;-78
2022/08/02 19:28:38;;;;;;;1.90;1.80;;;30.50;20.70;;;;;;10429027;28;20221;-77
2022/08/02 19:33:42;;;;;;;2.13;1.90;;;30.40;21.30;;;;;;10441133;28;20229;-78
2022/08/02 19:39:06;;;;;;;1.70;1.60;;;30.20;21.20;;;;;;10450657;28;20229;-78
2022/08/02 19:44:10;;;;;;;1.80;1.70;;;30.00;21.10;;;;;;10440829;28;20351;-77
2022/08/02 19:49:32;;;;;;;1.70;1.60;;;29.70;21.40;;;;;;10439847;28;20228;-77
2022/08/02 19:54:42;;;;;;;1.70;1.60;;;29.50;21.40;;;;;;10440966;28;20228;-77
2022/08/02 20:00:00;;;;;;;1.90;1.80;;;29.10;21.80;;;;;;10444406;28;20286;-77
2022/08/02 20:05:04;;;;;;;1.63;1.53;;;28.90;22.50;;;;;;10441901;28;20251;-76
2022/08/02 20:10:18;;;;;;;2.00;1.90;;;28.70;22.50;;;;;;10435967;28;20216;-77
2022/08/02 20:15:29;;;;;;;2.30;2.07;;;28.50;22.60;;;;;;10439493;28;20232;-77
2022/08/02 20:20:52;;;;;;;3.53;1.43;;;28.20;23.10;;;;;;10436198;28;20225;-77
2022/08/02 20:25:56;;;;;;;1.70;1.60;;;27.90;23.30;;;;;;10440590;28;20221;-77
2022/08/02 20:31:07;;;;;;;1.93;1.40;;;27.80;23.60;;;;;;10440765;28;20313;-77
2022/08/02 20:36:11;;;;;;;1.60;1.50;;;27.80;24.30;;;;;;10437228;28;20271;-77
2022/08/02 20:41:16;;;;;;;1.70;1.60;;;27.70;24.10;;;;;;10439118;28;20335;-77
2022/08/02 20:46:25;;;;;;;1.60;1.50;;;27.60;24.40;;;;;;10440294;28;20987;-76
2022/08/02 20:51:28;;;;;;;1.63;1.53;;;27.50;25.00;;;;;;10434601;28;20221;-77
2022/08/02 20:56:36;;;;;;;3.93;1.67;;;27.30;24.70;;;;;;10431784;28;20232;-77
2022/08/02 21:01:40;;;;;;;2.10;1.73;;;27.10;24.90;;;;;;10438175;28;20672;-77
2022/08/02 21:06:59;;;;;;;1.70;1.60;;;26.90;25.40;;;;;;10438035;28;20232;-77
2022/08/02 21:12:06;;;;;;;1.70;1.60;;;26.70;25.30;;;;;;10440273;28;20224;-76
2022/08/02 21:17:16;;;;;;;1.40;1.30;;;26.60;25.60;;;;;;10440751;28;20236;-76
2022/08/02 21:22:39;;;;;;;3.37;1.30;;;26.50;26.00;;;;;;10440217;28;20228;-76
2022/08/02 21:27:42;;;;;;;2.17;1.60;;;26.60;25.80;;;;;;10438919;28;20235;-76
2022/08/02 21:32:56;;;;;;;2.00;1.60;;;26.50;25.90;;;;;;10439062;28;20233;-76
2022/08/02 21:38:00;;;;;;;2.13;1.43;;;26.50;26.40;;;;;;10441750;28;20221;-76
2022/08/02 21:43:03;;;;;;;1.97;1.50;;;26.40;26.00;;;;;;10437786;28;20225;-76
2022/08/02 21:48:12;;;;;;;1.50;1.40;;;26.20;26.10;;;;;;10438672;28;20705;-77
2022/08/02 21:53:15;;;;;;;1.70;1.60;;;25.90;26.60;;;;;;10439567;28;20235;-76
2022/08/02 21:58:38;;;;;;;1.90;1.80;;;25.70;27.30;;;;;;10434973;28;20235;-76
2022/08/02 22:03:43;;;;;;;3.93;1.80;;;25.60;26.90;;;;;;10440135;28;20243;-76
2022/08/02 22:08:57;;;;;;;2.00;1.90;;;25.60;27.60;;;;;;10435634;28;20228;-76
2022/08/02 22:14:01;;;;;;;2.23;2.03;;;25.60;27.20;;;;;;10435612;28;20235;-76
2022/08/02 22:19:05;;;;;;;2.10;1.90;;;25.50;27.10;;;;;;10431403;28;20236;-76
2022/08/02 22:24:08;;;;;;;2.00;1.60;;;25.40;27.70;;;;;;10432689;28;20230;-76
2022/08/02 22:29:21;;;;;;;1.90;1.80;;;25.30;27.40;;;;;;10432562;28;20225;-77
2022/08/02 22:34:26;;;;;;;1.60;1.50;;;25.30;27.60;;;;;;10437134;28;20230;-76
2022/08/02 22:39:49;;;;;;;1.60;1.50;;;25.30;28.10;;;;;;10435920;28;20225;-76
2022/08/02 22:45:11;;;;;;;1.87;1.73;;;25.30;27.70;;;;;;10437392;28;20216;-76
2022/08/02 22:50:16;;;;;;;1.80;1.70;;;25.20;27.80;;;;;;10435839;28;20221;-76
2022/08/02 22:55:19;;;;;;;2.00;1.80;;;25.20;28.20;;;;;;10431626;28;20229;-76
2022/08/02 23:00:25;;;;;;;1.90;1.63;;;25.20;27.90;;;;;;10434982;28;20228;-76
2022/08/02 23:05:30;;;;;;;1.70;1.60;;;25.10;28.00;;;;;;10438738;28;20593;-76
2022/08/02 23:10:34;;;;;;;1.77;1.67;;;24.90;28.70;;;;;;10442921;28;20221;-76
2022/08/02 23:20:57;;;;;;;1.73;1.60;;;24.60;28.40;;;;;;10439458;28;20225;-76
2022/08/02 23:26:00;;;;;;;3.20;2.00;;;24.30;28.80;;;;;;10445074;28;20232;-76
2022/08/02 23:31:32;;;;;;;1.87;1.70;;;24.00;28.10;;;;;;10447037;28;20217;-76
2022/08/02 23:36:40;;;;;;;1.80;1.70;;;23.70;29.30;;;;;;10441432;28;20228;-76
2022/08/02 23:41:44;;;;;;;1.70;1.50;;;23.50;29.40;;;;;;10443869;28;20232;-76
2022/08/02 23:46:59;;;;;;;1.53;1.43;;;23.30;29.20;;;;;;10441180;28;20310;-76
2022/08/02 23:52:04;;;;;;;1.87;1.40;;;23.20;29.50;;;;;;10439477;28;20577;-76
2022/08/02 23:57:07;;;;;;;1.93;1.83;;;23.10;30.10;;;;;;10441988;28;20959;-75
